De Tour Village, Michigan
Current Conditions -  °F | °C
As of 6:35 AM on Saturday 25 Oct 2014 (Local Time) from KDRM Reporting Station
Haze Haze  
Wind Chill: 52°   Ceiling: 800
Heat Index: 52°   Visibility: 5mi
Dew Point: 51°   Wind: 10mph
Humidity: 96%   Direction: 260°W
Pressure: 29.63"   Gusts: 18mph
Location:  45.99°N, 83.9°W
Report Text: KDRM 251035Z AUTO 26009G16KT 240V310 5SM BR BKN008 OVC013 11/11 A2963 RMK AO2 T01130107
Loading
Personal Weather Stations






























Interactive Weather Map
Tropical Storm Tracking
New forecast layout! Learn more

10-Day Weather Forecast

Advertisements
Track Severe Weather on mobile